createdAt,value
2023-01-19T00:00:39.420Z,91.97
2023-01-19T00:01:39.275Z,92.03
2023-01-19T00:02:39.393Z,92.08
2023-01-19T00:03:39.310Z,91.72
2023-01-19T00:04:39.253Z,91.77
2023-01-19T00:05:39.230Z,91.77
2023-01-19T00:06:39.288Z,91.87
2023-01-19T00:07:39.211Z,92.08
2023-01-19T00:08:39.189Z,92.08
2023-01-19T00:09:39.213Z,91.97
2023-01-19T00:10:39.174Z,91.77
2023-01-19T00:11:39.157Z,92.29
2023-01-19T00:12:39.187Z,92.38
2023-01-19T00:13:39.205Z,92.49
2023-01-19T00:14:39.128Z,92.38
2023-01-19T00:15:39.158Z,92.43
2023-01-19T00:16:39.135Z,92.43
2023-01-19T00:17:39.089Z,92.43
2023-01-19T00:18:39.141Z,92.63
2023-01-19T00:19:39.071Z,92.33
2023-01-19T00:20:39.096Z,92.53
2023-01-19T00:21:39.046Z,91.91
2023-01-19T00:22:39.031Z,92.02
2023-01-19T00:23:39.023Z,92.06
2023-01-19T00:24:39.104Z,92.12
2023-01-19T00:25:39.034Z,92.27
2023-01-19T00:26:38.988Z,92.12
2023-01-19T00:27:38.979Z,92.57
2023-01-19T00:28:38.971Z,92.68
2023-01-19T00:29:38.952Z,91.75
2023-01-19T00:30:38.992Z,92.06
2023-01-19T00:31:39.002Z,91.96
2023-01-19T00:32:38.923Z,92.06
2023-01-19T00:33:38.910Z,92.27
2023-01-19T00:34:38.892Z,92.47
2023-01-19T00:35:38.934Z,91.96
2023-01-19T00:36:38.979Z,92.47
2023-01-19T00:37:38.862Z,92.47
2023-01-19T00:38:38.859Z,92.47
2023-01-19T00:39:38.837Z,92.57
2023-01-19T00:40:38.899Z,92.57
2023-01-19T00:41:38.841Z,92.57
2023-01-19T00:42:38.887Z,92.57
2023-01-19T00:43:38.801Z,92.16
2023-01-19T00:44:38.802Z,92.37
2023-01-19T00:45:38.815Z,92.47
2023-01-19T00:46:38.754Z,92.37
2023-01-19T00:47:38.751Z,92.16
2023-01-19T00:48:38.829Z,91.96
2023-01-19T00:49:38.727Z,92.06
2023-01-19T00:50:38.746Z,92.16
2023-01-19T00:51:38.706Z,91.96
2023-01-19T00:52:38.695Z,92.16
2023-01-19T00:53:38.678Z,92.27
2023-01-19T00:54:38.803Z,92.27
2023-01-19T00:55:38.677Z,92.47
2023-01-19T00:56:38.646Z,92.16
2023-01-19T00:57:38.681Z,92.37
2023-01-19T00:58:38.629Z,92.06
2023-01-19T00:59:38.660Z,92.47
2023-01-19T01:00:38.638Z,92.37
2023-01-19T01:01:44.989Z,92.16
2023-01-19T01:02:39.766Z,92.27
2023-01-19T01:03:38.568Z,92.37
2023-01-19T01:04:38.576Z,92.47
2023-01-19T01:05:38.551Z,92.47
2023-01-19T01:06:38.585Z,92.06
2023-01-19T01:07:38.531Z,92.57
2023-01-19T01:08:38.519Z,92.06
2023-01-19T01:09:38.505Z,92.47
2023-01-19T01:10:38.567Z,92.47
2023-01-19T01:11:38.486Z,92.47
2023-01-19T01:12:38.485Z,92.37
2023-01-19T01:13:38.485Z,92.37
2023-01-19T01:14:38.443Z,92.37
2023-01-19T01:15:38.483Z,92.47
2023-01-19T01:16:38.510Z,92.06
2023-01-19T01:17:38.414Z,92.57
2023-01-19T01:18:38.496Z,92.47
2023-01-19T01:19:38.402Z,92.37
2023-01-19T01:20:38.380Z,92.27
2023-01-19T01:21:38.368Z,92.06
2023-01-19T01:22:38.352Z,92.37
2023-01-19T01:23:38.345Z,92.37
2023-01-19T01:24:38.351Z,92.16
2023-01-19T01:25:38.332Z,92.16
2023-01-19T01:26:38.315Z,91.96
2023-01-19T01:27:38.317Z,92.37
2023-01-19T01:28:38.290Z,91.96
2023-01-19T01:29:38.301Z,92.06
2023-01-19T01:30:38.378Z,92.16
2023-01-19T01:31:38.377Z,91.96
2023-01-19T01:32:38.240Z,92.16
2023-01-19T01:33:39.981Z,92.27
2023-01-19T01:34:38.228Z,92.06
2023-01-19T01:35:38.203Z,91.96
2023-01-19T01:36:38.258Z,92.06
2023-01-19T01:37:38.194Z,92.27
2023-01-19T01:38:38.267Z,92.06
2023-01-19T01:39:38.212Z,91.96
2023-01-19T01:40:38.152Z,92.27
2023-01-19T01:41:38.137Z,92.06
2023-01-19T01:42:38.161Z,92.51
2023-01-19T01:43:38.125Z,92.57
2023-01-19T01:44:38.107Z,92.37
2023-01-19T01:45:38.214Z,92.27
2023-01-19T01:46:38.097Z,92.78
2023-01-19T01:47:38.102Z,92.78
2023-01-19T01:48:38.201Z,92.99
2023-01-19T01:49:38.052Z,92.57
2023-01-19T01:50:38.072Z,92.78
2023-01-19T01:51:38.031Z,92.78
2023-01-19T01:52:38.018Z,92.68
2023-01-19T01:53:38.000Z,92.99
2023-01-19T01:54:38.023Z,92.68
2023-01-19T01:55:38.001Z,92.99
2023-01-19T01:56:37.974Z,92.78
2023-01-19T01:57:37.968Z,92.27
2023-01-19T01:58:37.951Z,92.27
2023-01-19T01:59:37.959Z,92.47
2023-01-19T02:00:37.958Z,92.93
2023-01-19T02:01:38.019Z,92.99
2023-01-19T02:02:37.904Z,92.68
2023-01-19T02:03:38.155Z,92.78
2023-01-19T02:04:37.884Z,92.72
2023-01-19T02:05:37.944Z,92.72
2023-01-19T02:06:37.963Z,92.88
2023-01-19T02:07:37.841Z,92.78
2023-01-19T02:08:37.838Z,92.82
2023-01-19T02:09:37.816Z,92.82
2023-01-19T02:10:37.807Z,92.61
2023-01-19T02:11:37.804Z,92.61
2023-01-19T02:12:37.826Z,92.82
2023-01-19T02:13:37.778Z,92.72
2023-01-19T02:14:37.765Z,92.68
2023-01-19T02:15:37.748Z,92.82
2023-01-19T02:16:37.862Z,92.78
2023-01-19T02:17:37.757Z,92.88
2023-01-19T02:18:37.761Z,92.99
2023-01-19T02:19:37.740Z,92.78
2023-01-19T02:20:37.712Z,92.78
2023-01-19T02:21:37.686Z,92.78
2023-01-19T02:22:37.669Z,93.13
2023-01-19T02:23:37.668Z,92.93
2023-01-19T02:24:37.762Z,92.82
2023-01-19T02:25:37.639Z,92.93
2023-01-19T02:26:37.672Z,92.78
2023-01-19T02:27:37.630Z,92.88
2023-01-19T02:28:37.608Z,92.78
2023-01-19T02:29:37.600Z,92.88
2023-01-19T02:30:37.702Z,92.68
2023-01-19T02:31:37.573Z,92.99
2023-01-19T02:32:37.567Z,92.99
2023-01-19T02:33:37.678Z,92.93
2023-01-19T02:34:37.542Z,92.68
2023-01-19T02:35:37.563Z,92.78
2023-01-19T02:36:37.709Z,92.51
2023-01-19T02:37:37.606Z,92.78
2023-01-19T02:38:37.620Z,93.03
2023-01-19T02:39:37.520Z,92.88
2023-01-19T02:40:37.508Z,92.68
2023-01-19T02:41:37.461Z,92.88
2023-01-19T02:42:37.516Z,92.68
2023-01-19T02:43:37.506Z,92.68
2023-01-19T02:44:37.541Z,92.82
2023-01-19T02:45:37.439Z,92.78
2023-01-19T02:46:37.403Z,92.88
2023-01-19T02:47:37.397Z,92.88
2023-01-19T02:48:37.438Z,92.88
2023-01-19T02:49:37.403Z,92.88
2023-01-19T02:50:37.394Z,92.72
2023-01-19T02:51:37.386Z,92.78
2023-01-19T02:52:37.353Z,92.78
2023-01-19T02:53:37.320Z,92.99
2023-01-19T02:54:37.490Z,92.99
2023-01-19T02:55:37.324Z,93.13
2023-01-19T02:56:37.317Z,92.93
2023-01-19T02:57:37.289Z,92.82
2023-01-19T02:58:37.273Z,92.99
2023-01-19T02:59:37.258Z,92.57
2023-01-19T03:00:37.290Z,92.99
2023-01-19T03:01:37.448Z,93.03
2023-01-19T03:02:37.380Z,92.93
2023-01-19T03:03:37.227Z,92.72
2023-01-19T03:04:37.207Z,92.82
2023-01-19T03:05:37.216Z,92.93
2023-01-19T03:06:37.267Z,92.72
2023-01-19T03:07:37.175Z,92.82
2023-01-19T03:08:37.158Z,93.13
2023-01-19T03:09:37.142Z,93.85
2023-01-19T03:10:37.165Z,93.96
2023-01-19T03:11:37.127Z,93.75
2023-01-19T03:12:37.289Z,93.13
2023-01-19T03:13:37.125Z,92.93
2023-01-19T03:14:37.092Z,92.72
2023-01-19T03:15:37.429Z,92.55
2023-01-19T03:16:37.081Z,93.96
2023-01-19T03:17:37.147Z,93.24
2023-01-19T03:18:37.154Z,93.54
2023-01-19T03:19:37.160Z,93.75
2023-01-19T03:20:37.023Z,93.24
2023-01-19T03:21:37.113Z,93.34
2023-01-19T03:22:36.998Z,93.24
2023-01-19T03:23:37.012Z,93.34
2023-01-19T03:24:37.951Z,93.24
2023-01-19T03:25:36.975Z,93.34
2023-01-19T03:26:36.956Z,93.24
2023-01-19T03:27:36.949Z,93.44
2023-01-19T03:28:36.949Z,93.44
2023-01-19T03:29:36.934Z,93.24
2023-01-19T03:30:37.207Z,93.24
2023-01-19T03:31:36.996Z,93.24
2023-01-19T03:32:37.037Z,93.75
2023-01-19T03:33:36.900Z,93.24
2023-01-19T03:34:36.962Z,93.44
2023-01-19T03:35:36.922Z,93.34
2023-01-19T03:36:36.894Z,93.34
2023-01-19T03:37:36.858Z,93.44
2023-01-19T03:38:36.954Z,93.30
2023-01-19T03:39:36.808Z,93.30
2023-01-19T03:40:36.804Z,93.19
2023-01-19T03:41:36.799Z,93.19
2023-01-19T03:42:36.834Z,92.99
2023-01-19T03:43:36.807Z,92.61
2023-01-19T03:44:36.769Z,92.51
2023-01-19T03:45:36.747Z,92.72
2023-01-19T03:46:36.762Z,93.03
2023-01-19T03:47:36.806Z,92.93
2023-01-19T03:48:36.741Z,93.03
2023-01-19T03:49:36.723Z,92.47
2023-01-19T03:50:36.692Z,93.24
2023-01-19T03:51:36.676Z,93.54
2023-01-19T03:52:36.671Z,93.40
2023-01-19T03:53:36.764Z,93.19
2023-01-19T03:54:36.774Z,93.34
2023-01-19T03:55:36.638Z,93.30
2023-01-19T03:56:36.659Z,92.72
2023-01-19T03:57:36.801Z,92.78
2023-01-19T03:58:36.701Z,93.19
2023-01-19T03:59:36.606Z,93.09
2023-01-19T04:00:36.665Z,93.09
2023-01-19T04:01:36.704Z,92.99
2023-01-19T04:02:36.590Z,92.88
2023-01-19T04:03:36.556Z,93.30
2023-01-19T04:04:36.550Z,93.40
2023-01-19T04:05:36.522Z,92.68
2023-01-19T04:06:36.579Z,92.88
2023-01-19T04:07:36.500Z,92.06
2023-01-19T04:08:36.502Z,92.37
2023-01-19T04:09:36.504Z,92.88
2023-01-19T04:10:36.688Z,92.78
2023-01-19T04:11:36.450Z,92.88
2023-01-19T04:12:36.521Z,93.19
2023-01-19T04:13:36.430Z,93.19
2023-01-19T04:14:36.446Z,93.30
2023-01-19T04:15:36.481Z,93.19
2023-01-19T04:16:36.432Z,93.40
2023-01-19T04:17:36.402Z,93.50
2023-01-19T04:18:36.425Z,93.09
2023-01-19T04:19:36.357Z,92.78
2023-01-19T04:20:36.343Z,93.30
2023-01-19T04:21:36.358Z,93.60
2023-01-19T04:22:36.466Z,93.19
2023-01-19T04:23:36.427Z,93.40
2023-01-19T04:24:36.571Z,93.40
2023-01-19T04:25:38.127Z,92.99
2023-01-19T04:26:36.368Z,93.50
2023-01-19T04:27:36.264Z,93.50
2023-01-19T04:28:36.295Z,93.25
2023-01-19T04:29:36.259Z,93.35
2023-01-19T04:30:36.265Z,93.35
2023-01-19T04:31:36.304Z,93.56
2023-01-19T04:32:36.203Z,93.50
2023-01-19T04:33:36.228Z,93.66
2023-01-19T04:34:36.208Z,93.15
2023-01-19T04:35:36.181Z,93.15
2023-01-19T04:36:36.203Z,93.50
2023-01-19T04:37:36.186Z,93.25
2023-01-19T04:38:36.175Z,93.40
2023-01-19T04:39:36.159Z,93.35
2023-01-19T04:40:36.190Z,93.25
2023-01-19T04:41:36.156Z,93.25
2023-01-19T04:42:36.310Z,93.35
2023-01-19T04:43:36.102Z,93.15
2023-01-19T04:44:36.184Z,93.15
2023-01-19T04:45:36.082Z,93.25
2023-01-19T04:46:36.263Z,93.25
2023-01-19T04:47:36.043Z,93.25
2023-01-19T04:48:36.060Z,93.25
2023-01-19T04:49:36.082Z,93.25
2023-01-19T04:50:36.211Z,93.35
2023-01-19T04:51:36.085Z,93.25
2023-01-19T04:52:36.013Z,92.63
2023-01-19T04:53:35.971Z,92.84
2023-01-19T04:54:36.070Z,93.46
2023-01-19T04:55:35.974Z,93.05
2023-01-19T04:56:35.934Z,93.15
2023-01-19T04:57:35.961Z,93.15
2023-01-19T04:58:35.998Z,93.25
2023-01-19T04:59:35.913Z,92.63
2023-01-19T05:00:35.954Z,93.05
2023-01-19T05:01:35.918Z,93.15
2023-01-19T05:02:36.099Z,93.15
2023-01-19T05:03:35.978Z,92.84
2023-01-19T05:04:35.944Z,92.63
2023-01-19T05:05:35.954Z,92.84
2023-01-19T05:06:35.909Z,92.84
2023-01-19T05:07:35.848Z,92.94
2023-01-19T05:08:35.826Z,92.63
2023-01-19T05:09:35.796Z,93.21
2023-01-19T05:10:35.838Z,93.35
2023-01-19T05:11:35.787Z,92.38
2023-01-19T05:12:35.820Z,93.73
2023-01-19T05:13:35.776Z,93.66
2023-01-19T05:14:35.732Z,93.35
2023-01-19T05:15:35.738Z,93.66
2023-01-19T05:16:35.751Z,93.15
2023-01-19T05:17:35.701Z,93.41
2023-01-19T05:18:35.722Z,93.25
2023-01-19T05:19:35.792Z,93.25
2023-01-19T05:20:35.668Z,93.56
2023-01-19T05:21:35.659Z,93.25
2023-01-19T05:22:35.671Z,93.35
2023-01-19T05:23:35.625Z,93.25
2023-01-19T05:24:35.652Z,93.15
2023-01-19T05:25:35.613Z,93.11
2023-01-19T05:26:35.597Z,93.25
2023-01-19T05:27:35.617Z,93.15
2023-01-19T05:28:35.569Z,93.11
2023-01-19T05:29:35.606Z,93.15
2023-01-19T05:30:35.661Z,92.90
2023-01-19T05:31:35.643Z,93.25
2023-01-19T05:32:35.551Z,93.25
2023-01-19T05:33:35.518Z,93.21
2023-01-19T05:34:35.632Z,93.25
2023-01-19T05:35:36.573Z,93.11
2023-01-19T05:36:35.570Z,93.62
2023-01-19T05:37:35.546Z,93.66
2023-01-19T05:38:36.132Z,93.01
2023-01-19T05:39:35.448Z,93.62
2023-01-19T05:40:35.486Z,93.01
2023-01-19T05:41:35.453Z,92.90
2023-01-19T05:42:35.469Z,92.18
2023-01-19T05:43:35.522Z,92.29
2023-01-19T05:44:35.391Z,91.91
2023-01-19T05:45:35.447Z,92.12
2023-01-19T05:46:35.461Z,92.43
2023-01-19T05:47:35.377Z,91.91
2023-01-19T05:48:35.421Z,91.81
2023-01-19T05:49:35.338Z,92.33
2023-01-19T05:50:35.329Z,92.22
2023-01-19T05:51:35.313Z,92.68
2023-01-19T05:52:35.321Z,92.84
2023-01-19T05:53:35.306Z,92.63
2023-01-19T05:54:35.332Z,92.74
2023-01-19T05:55:35.303Z,92.84
2023-01-19T05:56:35.272Z,93.15
2023-01-19T05:57:35.271Z,93.25
2023-01-19T05:58:35.328Z,93.87
2023-01-19T05:59:35.295Z,93.56
2023-01-19T06:00:35.252Z,92.47
2023-01-19T06:01:35.632Z,92.84
2023-01-19T06:02:35.188Z,92.63
2023-01-19T06:03:35.274Z,92.74
2023-01-19T06:04:35.169Z,92.53
2023-01-19T06:05:35.177Z,92.43
2023-01-19T06:06:35.219Z,92.53
2023-01-19T06:07:35.148Z,92.53
2023-01-19T06:08:35.200Z,92.74
2023-01-19T06:09:35.138Z,92.84
2023-01-19T06:10:35.116Z,92.74
2023-01-19T06:11:35.186Z,92.74
2023-01-19T06:12:35.124Z,93.05
2023-01-19T06:13:35.063Z,92.84
2023-01-19T06:14:35.059Z,92.57
2023-01-19T06:15:35.080Z,92.88
2023-01-19T06:16:35.067Z,92.88
2023-01-19T06:17:35.059Z,92.84
2023-01-19T06:18:35.226Z,92.78
2023-01-19T06:19:35.015Z,92.99
2023-01-19T06:20:35.013Z,92.78
2023-01-19T06:21:35.070Z,92.06
2023-01-19T06:22:35.096Z,92.37
2023-01-19T06:23:35.047Z,92.37
2023-01-19T06:24:35.005Z,92.16
2023-01-19T06:25:34.948Z,92.16
2023-01-19T06:26:35.133Z,92.27
2023-01-19T06:27:35.085Z,92.27
2023-01-19T06:28:34.960Z,91.85
2023-01-19T06:29:34.903Z,92.16
2023-01-19T06:30:34.959Z,92.27
2023-01-19T06:31:34.965Z,92.27
2023-01-19T06:32:35.770Z,92.06
2023-01-19T06:33:35.226Z,92.37
2023-01-19T06:34:35.030Z,92.78
2023-01-19T06:35:34.846Z,92.99
2023-01-19T06:36:34.887Z,92.88
2023-01-19T06:37:34.808Z,92.78
2023-01-19T06:38:35.055Z,92.57
2023-01-19T06:39:34.784Z,92.78
2023-01-19T06:40:34.926Z,92.78
2023-01-19T06:41:35.010Z,93.09
2023-01-19T06:42:34.845Z,92.88
2023-01-19T06:43:34.727Z,92.57
2023-01-19T06:44:34.719Z,92.78
2023-01-19T06:45:34.753Z,92.99
2023-01-19T06:46:34.697Z,92.57
2023-01-19T06:47:34.711Z,92.99
2023-01-19T06:48:34.782Z,92.57
2023-01-19T06:49:34.681Z,92.99
2023-01-19T06:50:34.663Z,92.88
2023-01-19T06:51:34.639Z,92.99
2023-01-19T06:52:34.809Z,92.88
2023-01-19T06:53:34.619Z,92.88
2023-01-19T06:54:34.703Z,92.57
2023-01-19T06:55:34.615Z,92.47
2023-01-19T06:56:34.608Z,91.96
2023-01-19T06:57:34.573Z,92.37
2023-01-19T06:58:34.590Z,92.51
2023-01-19T06:59:34.554Z,92.41
2023-01-19T07:00:34.578Z,93.03
2023-01-19T07:01:34.725Z,92.82
2023-01-19T07:02:34.668Z,93.03
2023-01-19T07:03:34.605Z,93.24
2023-01-19T07:04:34.496Z,93.24
2023-01-19T07:05:34.535Z,92.99
2023-01-19T07:06:34.528Z,93.09
2023-01-19T07:07:34.465Z,92.61
2023-01-19T07:08:34.652Z,92.78
2023-01-19T07:09:34.446Z,92.37
2023-01-19T07:11:23.192Z,92.41
2023-01-19T07:11:35.458Z,92.10
2023-01-19T07:12:35.284Z,92.27
2023-01-19T07:13:34.391Z,91.75
2023-01-19T07:14:34.377Z,92.21
2023-01-19T07:15:34.361Z,92.10
2023-01-19T07:16:34.389Z,92.00
2023-01-19T07:17:34.668Z,92.21
2023-01-19T07:18:34.340Z,92.51
2023-01-19T07:19:34.445Z,92.21
2023-01-19T07:20:34.453Z,92.61
2023-01-19T07:21:34.338Z,92.16
2023-01-19T07:22:34.295Z,93.03
2023-01-19T07:23:34.328Z,92.93
2023-01-19T07:24:34.301Z,92.68
2023-01-19T07:25:34.451Z,92.82
2023-01-19T07:26:34.249Z,93.03
2023-01-19T07:27:34.261Z,92.51
2023-01-19T07:28:34.221Z,92.57
2023-01-19T07:29:34.255Z,92.27
2023-01-19T07:30:34.395Z,91.96
2023-01-19T07:31:34.328Z,92.51
2023-01-19T07:32:34.213Z,92.68
2023-01-19T07:33:34.163Z,92.06
2023-01-19T07:34:34.179Z,91.85
2023-01-19T07:35:34.235Z,92.16
2023-01-19T07:36:34.132Z,92.21
2023-01-19T07:37:34.162Z,91.96
2023-01-19T07:38:34.122Z,92.27
2023-01-19T07:39:34.219Z,92.51
2023-01-19T07:40:34.102Z,92.37
2023-01-19T07:41:34.115Z,92.06
2023-01-19T07:42:34.068Z,92.21
2023-01-19T07:43:34.183Z,91.58
2023-01-19T07:44:34.053Z,91.85
2023-01-19T07:45:35.066Z,91.69
2023-01-19T08:52:42.831Z,96.49
2023-01-19T08:53:42.575Z,96.29
2023-01-19T08:54:42.546Z,96.29
2023-01-19T08:55:42.549Z,95.98
2023-01-19T08:56:43.388Z,95.94
2023-01-19T08:57:42.508Z,95.94
2023-01-19T08:58:42.733Z,95.10
2023-01-19T08:59:42.484Z,94.96
2023-01-19T09:00:42.489Z,94.65
2023-01-19T09:01:42.658Z,94.50
2023-01-19T09:02:42.564Z,93.78
2023-01-19T09:03:42.449Z,93.78
2023-01-19T09:04:42.468Z,93.47
2023-01-19T09:05:42.424Z,92.85
2023-01-19T09:06:42.410Z,93.05
2023-01-19T09:07:42.396Z,93.05
2023-01-19T09:08:42.437Z,93.26
2023-01-19T09:09:42.381Z,93.16
2023-01-19T09:10:42.663Z,93.26
2023-01-19T09:11:42.455Z,93.16
2023-01-19T09:12:42.449Z,92.95
2023-01-19T09:13:42.504Z,92.74
2023-01-19T09:14:42.329Z,92.33
2023-01-19T09:15:42.410Z,92.33
2023-01-19T09:16:42.323Z,92.33
2023-01-19T09:17:42.338Z,92.95
2023-01-19T09:18:42.319Z,92.33
2023-01-19T09:19:42.265Z,92.02
2023-01-19T09:20:42.260Z,92.23
2023-01-19T09:21:42.291Z,92.19
2023-01-19T09:22:42.478Z,92.50
2023-01-19T09:23:42.255Z,92.40
2023-01-19T09:24:42.238Z,92.29
2023-01-19T09:25:42.204Z,92.50
2023-01-19T09:26:42.332Z,92.19
2023-01-19T09:27:42.375Z,92.33
2023-01-19T09:28:42.233Z,92.19
2023-01-19T09:29:42.165Z,92.23
2023-01-19T09:30:42.182Z,92.08
2023-01-19T09:31:42.196Z,92.19
2023-01-19T09:32:42.270Z,92.50
2023-01-19T09:33:42.150Z,92.08
2023-01-19T09:34:42.165Z,92.19
2023-01-19T09:35:42.084Z,92.19
2023-01-19T09:36:42.085Z,92.40
2023-01-19T09:37:42.060Z,92.04
2023-01-19T09:38:42.118Z,92.70
2023-01-19T09:39:42.086Z,92.50
2023-01-19T09:40:42.320Z,92.50
2023-01-19T09:41:42.017Z,92.35
2023-01-19T09:42:42.167Z,92.14
2023-01-19T09:43:42.012Z,92.04
2023-01-19T09:44:42.001Z,91.83
2023-01-19T09:45:41.987Z,92.14
2023-01-19T09:46:42.290Z,92.46
2023-01-19T09:47:42.115Z,92.66
2023-01-19T09:48:41.936Z,92.55
2023-01-19T09:49:41.950Z,92.35
2023-01-19T09:50:44.037Z,92.31
2023-01-19T09:51:42.033Z,92.04
2023-01-19T09:52:42.037Z,92.31
2023-01-19T09:56:25.087Z,92.35
2023-01-19T09:57:24.624Z,92.66
2023-01-19T09:58:24.615Z,92.97
2023-01-19T09:59:24.597Z,93.18
2023-01-19T10:00:26.247Z,93.79
2023-01-19T10:01:24.640Z,93.28
2023-01-19T10:02:24.667Z,93.49
2023-01-19T10:03:24.753Z,93.38
2023-01-19T10:04:24.598Z,93.28
2023-01-19T10:05:24.518Z,93.28
2023-01-19T10:06:24.581Z,93.18
2023-01-19T10:07:24.491Z,92.97
2023-01-19T10:08:24.477Z,92.86
2023-01-19T10:09:24.488Z,92.86
2023-01-19T10:10:24.592Z,92.93
2023-01-19T10:11:24.447Z,92.25
2023-01-19T10:12:24.480Z,92.31
2023-01-19T10:13:24.430Z,92.31
2023-01-19T10:14:24.425Z,92.35
2023-01-19T10:15:24.453Z,92.61
2023-01-19T10:16:24.607Z,92.61
2023-01-19T10:17:24.401Z,92.51
2023-01-19T10:18:24.380Z,92.66
2023-01-19T10:19:24.364Z,92.61
2023-01-19T10:20:24.342Z,92.66
2023-01-19T10:21:24.348Z,92.51
2023-01-19T10:22:24.396Z,92.31
2023-01-19T10:23:24.318Z,92.00
2023-01-19T10:24:24.306Z,92.41
2023-01-19T10:25:24.324Z,92.55
2023-01-19T10:26:24.332Z,92.51
2023-01-19T10:27:24.268Z,92.10
2023-01-19T10:28:25.048Z,92.04
2023-01-19T10:29:24.241Z,92.00
2023-01-19T10:30:24.236Z,91.69
2023-01-19T10:31:24.500Z,91.58
2023-01-19T10:32:24.235Z,91.94
2023-01-19T10:33:24.223Z,91.94
2023-01-19T10:34:24.250Z,91.63
2023-01-19T10:35:24.437Z,91.83
2023-01-19T10:36:24.166Z,92.04
2023-01-19T10:37:24.260Z,92.25
2023-01-19T10:38:24.140Z,92.14
2023-01-19T10:39:24.130Z,92.04
2023-01-19T10:40:24.180Z,91.63
2023-01-19T10:41:24.141Z,92.04
2023-01-19T10:42:24.164Z,91.83
2023-01-19T10:43:24.085Z,92.14
2023-01-19T10:44:24.192Z,92.25
2023-01-19T10:45:24.182Z,92.25
2023-01-19T10:46:24.373Z,92.14
2023-01-19T10:51:21.922Z,92.70
2023-01-19T10:52:22.003Z,92.76
2023-01-19T10:53:22.075Z,92.19
2023-01-19T10:54:21.884Z,92.08
2023-01-19T10:55:21.924Z,92.19
2023-01-19T10:58:55.538Z,92.40
2023-01-19T10:59:55.513Z,91.67
2023-01-19T11:00:55.680Z,91.92
2023-01-19T11:01:56.366Z,91.61
2023-01-19T11:03:04.063Z,92.23
2023-01-19T11:05:47.483Z,91.13
2023-01-19T11:06:54.657Z,91.55
2023-01-19T11:07:47.320Z,91.80
2023-01-19T11:08:47.505Z,92.42
2023-01-19T11:09:47.339Z,92.25
2023-01-19T11:11:57.448Z,92.05
2023-01-19T11:12:56.651Z,92.40
2023-01-19T11:13:56.728Z,92.97
2023-01-19T11:14:56.521Z,92.25
2023-01-19T11:15:56.530Z,92.46
2023-01-19T11:16:57.350Z,92.46
2023-01-19T11:17:56.522Z,92.50
2023-01-19T11:18:56.463Z,92.36
2023-01-19T11:19:56.435Z,93.29
2023-01-19T11:20:56.426Z,92.91
2023-01-19T11:21:57.361Z,92.77
2023-01-19T11:22:56.400Z,93.29
2023-01-19T11:23:56.533Z,93.08
2023-01-19T11:24:56.384Z,92.87
2023-01-19T11:25:56.390Z,92.46
2023-01-19T11:26:56.387Z,92.57
2023-01-19T11:27:56.353Z,92.42
2023-01-19T11:28:56.399Z,92.52
2023-01-19T11:29:56.660Z,92.52
2023-01-19T11:30:56.343Z,92.42
2023-01-19T11:31:56.388Z,92.32
2023-01-19T11:32:56.370Z,92.52
2023-01-19T11:33:56.276Z,92.52
2023-01-19T11:34:57.456Z,92.72
2023-01-19T12:02:36.939Z,93.29
